KWRI/WRI METAR and TAF weather

Enter ICAO airport designator
Station Type Date Time Source
KWRI METAR 2019/12/14 19:32 UTC NOAA

KWRI 141932Z 20009KT 2 1/4SM -DZ BR OVC005 14/14 A2921 RMK AO2A TWR IVS 2 VIS 2 1/4V4 DZB32 CIG 003V005 CIG 003 RWY06 CIG 002 RWY18 SLP891


Station Type Date Time Source
KWRI Decoded METAR 2019/12/14 19:32 UTC NOAA

Mcguire Air Force Base, NJ, United States (KWRI) 40-01N 074-36W
Dec 14, 2019 - 02:32 PM EST / 2019.12.14 1932 UTC
Wind: from the SSW (200 degrees) at 10 MPH (9 KT):0
Visibility: 2 1/4 mile(s):0
Sky conditions: overcast
Weather: light drizzle; mist
Temperature: 57 F (14 C)
Dew Point: 57 F (14 C)
Relative Humidity: 100%
Pressure (altimeter): 29.21 in. Hg (989 hPa)
ob: KWRI 141932Z 20009KT 2 1/4SM -DZ BR OVC005 14/14 A2921 RMK AO2A TWR IVS 2 VIS 2 1/4V4 DZB32 CIG 003V005 CIG 003 RWY06 CIG 002 RWY18 SLP891
cycle: 19

Station Type Date Time Source
KWRI TAF 2019/12/14 18:39 UTC NOAA

TAF TAF KWRI 141800Z 1418/1524 19012G22KT 6000 BR OVC006 QNH2926INS
BECMG 1420/1421 24015G25KT 9999 NSW FEW006 BKN015 QNH2932INS
BECMG 1421/1423 25025G35KT 9999 BKN015 QNH2940INS
BECMG 1513/1514 27012G25KT 9999 SCT030 QNH2980INS
TEMPO 1514/1516 27025G35KT
BECMG 1521/1522 27010G15KT 9999 FEW050 QNH3004INS TX15/1418Z TN03/1512Z

Example: see airport list